sensor_id;sensor_type;location;lat;lon;timestamp;P1;durP1;ratioP1;P2;durP2;ratioP2
23282;SDS011;11810;51.178;3.878;2022-08-16T00:01:48;32.30;;;27.85;;
23282;SDS011;11810;51.178;3.878;2022-08-16T00:04:14;31.55;;;27.27;;
23282;SDS011;11810;51.178;3.878;2022-08-16T00:06:41;34.17;;;27.20;;
23282;SDS011;11810;51.178;3.878;2022-08-16T00:09:07;37.70;;;29.77;;
23282;SDS011;11810;51.178;3.878;2022-08-16T00:11:34;34.53;;;28.15;;
23282;SDS011;11810;51.178;3.878;2022-08-16T00:14:00;33.40;;;28.52;;
23282;SDS011;11810;51.178;3.878;2022-08-16T00:16:29;38.38;;;31.77;;
23282;SDS011;11810;51.178;3.878;2022-08-16T00:18:58;33.35;;;29.60;;
23282;SDS011;11810;51.178;3.878;2022-08-16T00:21:24;30.77;;;27.30;;
23282;SDS011;11810;51.178;3.878;2022-08-16T00:23:51;35.60;;;28.70;;
23282;SDS011;11810;51.178;3.878;2022-08-16T00:26:17;40.08;;;29.08;;
23282;SDS011;11810;51.178;3.878;2022-08-16T00:28:43;36.00;;;27.38;;
23282;SDS011;11810;51.178;3.878;2022-08-16T00:31:08;37.47;;;28.35;;
23282;SDS011;11810;51.178;3.878;2022-08-16T00:33:34;27.95;;;24.90;;
23282;SDS011;11810;51.178;3.878;2022-08-16T00:36:00;37.97;;;28.08;;
23282;SDS011;11810;51.178;3.878;2022-08-16T00:38:26;37.35;;;26.67;;
23282;SDS011;11810;51.178;3.878;2022-08-16T00:40:53;33.53;;;26.00;;
23282;SDS011;11810;51.178;3.878;2022-08-16T00:43:23;31.52;;;25.35;;
23282;SDS011;11810;51.178;3.878;2022-08-16T00:46:11;28.60;;;24.10;;
23282;SDS011;11810;51.178;3.878;2022-08-16T00:51:16;25.48;;;22.55;;
23282;SDS011;11810;51.178;3.878;2022-08-16T00:53:45;30.55;;;25.67;;
23282;SDS011;11810;51.178;3.878;2022-08-16T00:56:12;28.35;;;23.85;;
23282;SDS011;11810;51.178;3.878;2022-08-16T00:58:43;27.75;;;23.05;;
23282;SDS011;11810;51.178;3.878;2022-08-16T01:01:11;41.70;;;23.98;;
23282;SDS011;11810;51.178;3.878;2022-08-16T01:03:38;36.05;;;25.33;;
23282;SDS011;11810;51.178;3.878;2022-08-16T01:06:06;27.60;;;23.25;;
23282;SDS011;11810;51.178;3.878;2022-08-16T01:08:34;30.45;;;24.67;;
23282;SDS011;11810;51.178;3.878;2022-08-16T01:11:01;34.28;;;26.80;;
23282;SDS011;11810;51.178;3.878;2022-08-16T01:13:30;33.65;;;26.58;;
23282;SDS011;11810;51.178;3.878;2022-08-16T01:15:59;30.33;;;25.42;;
23282;SDS011;11810;51.178;3.878;2022-08-16T01:18:34;31.67;;;26.88;;
23282;SDS011;11810;51.178;3.878;2022-08-16T01:26:55;26.63;;;23.80;;
23282;SDS011;11810;51.178;3.878;2022-08-16T01:29:41;29.77;;;26.58;;
23282;SDS011;11810;51.178;3.878;2022-08-16T01:32:11;31.17;;;26.92;;
23282;SDS011;11810;51.178;3.878;2022-08-16T01:34:37;27.85;;;24.90;;
23282;SDS011;11810;51.178;3.878;2022-08-16T01:37:04;32.90;;;26.20;;
23282;SDS011;11810;51.178;3.878;2022-08-16T01:39:33;28.48;;;25.48;;
23282;SDS011;11810;51.178;3.878;2022-08-16T01:42:00;30.73;;;26.75;;
23282;SDS011;11810;51.178;3.878;2022-08-16T01:44:27;29.38;;;26.13;;
23282;SDS011;11810;51.178;3.878;2022-08-16T01:46:53;30.75;;;26.45;;
23282;SDS011;11810;51.178;3.878;2022-08-16T01:49:25;29.30;;;25.30;;
23282;SDS011;11810;51.178;3.878;2022-08-16T01:52:02;32.33;;;26.92;;
23282;SDS011;11810;51.178;3.878;2022-08-16T01:54:37;30.13;;;25.83;;
23282;SDS011;11810;51.178;3.878;2022-08-16T01:57:04;33.08;;;26.42;;
23282;SDS011;11810;51.178;3.878;2022-08-16T01:59:31;33.35;;;26.60;;
23282;SDS011;11810;51.178;3.878;2022-08-16T02:01:58;36.78;;;26.88;;
23282;SDS011;11810;51.178;3.878;2022-08-16T02:04:24;29.38;;;24.83;;
23282;SDS011;11810;51.178;3.878;2022-08-16T02:06:51;30.10;;;24.95;;
23282;SDS011;11810;51.178;3.878;2022-08-16T02:09:18;31.65;;;25.40;;
23282;SDS011;11810;51.178;3.878;2022-08-16T02:11:48;27.67;;;24.80;;
23282;SDS011;11810;51.178;3.878;2022-08-16T02:14:16;36.47;;;27.05;;
23282;SDS011;11810;51.178;3.878;2022-08-16T02:16:42;31.98;;;25.95;;
23282;SDS011;11810;51.178;3.878;2022-08-16T02:19:09;30.92;;;27.50;;
23282;SDS011;11810;51.178;3.878;2022-08-16T02:21:36;33.28;;;27.90;;
23282;SDS011;11810;51.178;3.878;2022-08-16T02:24:04;39.53;;;29.70;;
23282;SDS011;11810;51.178;3.878;2022-08-16T02:26:30;36.30;;;27.23;;
23282;SDS011;11810;51.178;3.878;2022-08-16T02:28:56;34.90;;;27.77;;
23282;SDS011;11810;51.178;3.878;2022-08-16T02:31:22;37.72;;;27.25;;
23282;SDS011;11810;51.178;3.878;2022-08-16T02:33:48;38.85;;;27.15;;
23282;SDS011;11810;51.178;3.878;2022-08-16T02:36:14;35.25;;;26.92;;
23282;SDS011;11810;51.178;3.878;2022-08-16T02:38:41;29.63;;;26.45;;
23282;SDS011;11810;51.178;3.878;2022-08-16T02:41:07;36.80;;;27.70;;
23282;SDS011;11810;51.178;3.878;2022-08-16T02:43:34;37.05;;;27.75;;
23282;SDS011;11810;51.178;3.878;2022-08-16T02:46:01;32.92;;;28.77;;
23282;SDS011;11810;51.178;3.878;2022-08-16T02:48:28;38.88;;;28.38;;
23282;SDS011;11810;51.178;3.878;2022-08-16T02:50:55;36.40;;;29.00;;
23282;SDS011;11810;51.178;3.878;2022-08-16T02:53:23;39.17;;;30.95;;
23282;SDS011;11810;51.178;3.878;2022-08-16T02:55:49;33.50;;;28.85;;
23282;SDS011;11810;51.178;3.878;2022-08-16T02:58:16;37.53;;;29.08;;
23282;SDS011;11810;51.178;3.878;2022-08-16T03:00:43;36.20;;;30.02;;
23282;SDS011;11810;51.178;3.878;2022-08-16T03:03:09;41.20;;;31.45;;
23282;SDS011;11810;51.178;3.878;2022-08-16T03:05:35;44.45;;;30.75;;
23282;SDS011;11810;51.178;3.878;2022-08-16T03:08:01;40.95;;;30.98;;
23282;SDS011;11810;51.178;3.878;2022-08-16T03:10:27;42.50;;;31.67;;
23282;SDS011;11810;51.178;3.878;2022-08-16T03:12:53;41.05;;;30.88;;
23282;SDS011;11810;51.178;3.878;2022-08-16T03:15:19;39.83;;;32.10;;
23282;SDS011;11810;51.178;3.878;2022-08-16T03:17:45;39.80;;;33.03;;
23282;SDS011;11810;51.178;3.878;2022-08-16T03:20:12;40.90;;;31.38;;
23282;SDS011;11810;51.178;3.878;2022-08-16T03:22:40;44.63;;;33.30;;
23282;SDS011;11810;51.178;3.878;2022-08-16T03:25:08;38.05;;;31.90;;
23282;SDS011;11810;51.178;3.878;2022-08-16T03:27:37;42.47;;;33.13;;
23282;SDS011;11810;51.178;3.878;2022-08-16T03:30:14;52.50;;;35.97;;
23282;SDS011;11810;51.178;3.878;2022-08-16T03:32:45;44.65;;;33.92;;
23282;SDS011;11810;51.178;3.878;2022-08-16T03:35:11;44.10;;;34.60;;
23282;SDS011;11810;51.178;3.878;2022-08-16T03:37:37;42.35;;;34.90;;
23282;SDS011;11810;51.178;3.878;2022-08-16T03:40:07;48.65;;;37.53;;
23282;SDS011;11810;51.178;3.878;2022-08-16T03:42:34;53.10;;;36.65;;
23282;SDS011;11810;51.178;3.878;2022-08-16T03:45:00;44.47;;;32.65;;
23282;SDS011;11810;51.178;3.878;2022-08-16T03:47:26;45.35;;;36.22;;
23282;SDS011;11810;51.178;3.878;2022-08-16T03:49:53;44.65;;;35.80;;
23282;SDS011;11810;51.178;3.878;2022-08-16T03:52:20;45.42;;;35.92;;
23282;SDS011;11810;51.178;3.878;2022-08-16T03:54:47;50.35;;;34.95;;
23282;SDS011;11810;51.178;3.878;2022-08-16T03:57:13;52.50;;;36.42;;
23282;SDS011;11810;51.178;3.878;2022-08-16T03:59:39;45.72;;;35.63;;
23282;SDS011;11810;51.178;3.878;2022-08-16T04:02:05;53.42;;;36.15;;
23282;SDS011;11810;51.178;3.878;2022-08-16T04:04:32;54.17;;;36.90;;
23282;SDS011;11810;51.178;3.878;2022-08-16T04:07:01;46.35;;;34.65;;
23282;SDS011;11810;51.178;3.878;2022-08-16T04:09:28;47.58;;;38.53;;
23282;SDS011;11810;51.178;3.878;2022-08-16T04:11:55;43.97;;;36.53;;
23282;SDS011;11810;51.178;3.878;2022-08-16T04:14:21;54.58;;;35.38;;
23282;SDS011;11810;51.178;3.878;2022-08-16T04:16:47;50.70;;;36.65;;
23282;SDS011;11810;51.178;3.878;2022-08-16T04:19:13;59.17;;;35.63;;
23282;SDS011;11810;51.178;3.878;2022-08-16T04:21:39;67.78;;;36.10;;
23282;SDS011;11810;51.178;3.878;2022-08-16T04:24:05;45.08;;;34.47;;
23282;SDS011;11810;51.178;3.878;2022-08-16T04:26:31;46.92;;;35.40;;
23282;SDS011;11810;51.178;3.878;2022-08-16T04:28:58;47.75;;;33.20;;
23282;SDS011;11810;51.178;3.878;2022-08-16T04:31:25;48.40;;;32.90;;
23282;SDS011;11810;51.178;3.878;2022-08-16T04:33:51;43.03;;;35.58;;
23282;SDS011;11810;51.178;3.878;2022-08-16T04:36:17;42.15;;;34.05;;
23282;SDS011;11810;51.178;3.878;2022-08-16T04:38:44;42.63;;;32.70;;
23282;SDS011;11810;51.178;3.878;2022-08-16T04:41:10;45.28;;;32.80;;
23282;SDS011;11810;51.178;3.878;2022-08-16T04:43:36;41.38;;;32.72;;
23282;SDS011;11810;51.178;3.878;2022-08-16T04:46:03;41.80;;;34.20;;
23282;SDS011;11810;51.178;3.878;2022-08-16T04:48:30;41.65;;;32.25;;
23282;SDS011;11810;51.178;3.878;2022-08-16T04:50:56;37.83;;;30.88;;
23282;SDS011;11810;51.178;3.878;2022-08-16T04:53:22;37.72;;;31.63;;
23282;SDS011;11810;51.178;3.878;2022-08-16T04:55:47;38.78;;;32.38;;
23282;SDS011;11810;51.178;3.878;2022-08-16T04:58:13;44.55;;;31.00;;
23282;SDS011;11810;51.178;3.878;2022-08-16T05:00:39;39.33;;;31.58;;
23282;SDS011;11810;51.178;3.878;2022-08-16T05:03:07;35.03;;;29.95;;
23282;SDS011;11810;51.178;3.878;2022-08-16T05:05:35;39.95;;;27.33;;
23282;SDS011;11810;51.178;3.878;2022-08-16T05:08:03;36.13;;;29.48;;
23282;SDS011;11810;51.178;3.878;2022-08-16T05:10:30;44.78;;;29.38;;
23282;SDS011;11810;51.178;3.878;2022-08-16T05:12:57;37.45;;;30.17;;
23282;SDS011;11810;51.178;3.878;2022-08-16T05:15:24;37.35;;;31.05;;
23282;SDS011;11810;51.178;3.878;2022-08-16T05:17:50;38.40;;;31.15;;
23282;SDS011;11810;51.178;3.878;2022-08-16T05:20:16;38.67;;;31.35;;
23282;SDS011;11810;51.178;3.878;2022-08-16T05:22:42;40.08;;;29.77;;
23282;SDS011;11810;51.178;3.878;2022-08-16T05:25:09;34.60;;;28.95;;
23282;SDS011;11810;51.178;3.878;2022-08-16T05:27:36;38.70;;;29.33;;
23282;SDS011;11810;51.178;3.878;2022-08-16T05:30:03;38.17;;;28.50;;
23282;SDS011;11810;51.178;3.878;2022-08-16T05:32:30;37.03;;;29.23;;
23282;SDS011;11810;51.178;3.878;2022-08-16T05:34:57;36.83;;;28.33;;
23282;SDS011;11810;51.178;3.878;2022-08-16T05:37:23;29.83;;;26.63;;
23282;SDS011;11810;51.178;3.878;2022-08-16T05:39:49;30.85;;;27.45;;
23282;SDS011;11810;51.178;3.878;2022-08-16T05:42:15;38.45;;;27.73;;
23282;SDS011;11810;51.178;3.878;2022-08-16T05:44:41;35.85;;;27.33;;
23282;SDS011;11810;51.178;3.878;2022-08-16T05:47:07;36.53;;;27.20;;
23282;SDS011;11810;51.178;3.878;2022-08-16T05:49:33;36.10;;;27.92;;
23282;SDS011;11810;51.178;3.878;2022-08-16T05:51:59;37.10;;;27.83;;
23282;SDS011;11810;51.178;3.878;2022-08-16T05:54:26;37.25;;;29.50;;
23282;SDS011;11810;51.178;3.878;2022-08-16T05:56:55;32.05;;;27.67;;
23282;SDS011;11810;51.178;3.878;2022-08-16T05:59:22;33.83;;;28.23;;
23282;SDS011;11810;51.178;3.878;2022-08-16T06:01:49;32.47;;;25.90;;
23282;SDS011;11810;51.178;3.878;2022-08-16T06:04:16;33.70;;;23.08;;
23282;SDS011;11810;51.178;3.878;2022-08-16T06:06:44;27.50;;;22.58;;
23282;SDS011;11810;51.178;3.878;2022-08-16T06:09:11;25.85;;;22.60;;
23282;SDS011;11810;51.178;3.878;2022-08-16T06:11:38;34.17;;;27.10;;
23282;SDS011;11810;51.178;3.878;2022-08-16T06:14:04;28.02;;;24.23;;
23282;SDS011;11810;51.178;3.878;2022-08-16T06:16:31;30.88;;;27.38;;
23282;SDS011;11810;51.178;3.878;2022-08-16T06:18:57;26.60;;;23.42;;
23282;SDS011;11810;51.178;3.878;2022-08-16T06:21:23;31.13;;;24.02;;
23282;SDS011;11810;51.178;3.878;2022-08-16T06:23:49;29.58;;;21.00;;
23282;SDS011;11810;51.178;3.878;2022-08-16T06:26:15;22.80;;;20.33;;
23282;SDS011;11810;51.178;3.878;2022-08-16T06:28:41;26.92;;;21.13;;
23282;SDS011;11810;51.178;3.878;2022-08-16T06:31:08;24.60;;;19.17;;
23282;SDS011;11810;51.178;3.878;2022-08-16T06:33:36;22.98;;;18.60;;
23282;SDS011;11810;51.178;3.878;2022-08-16T06:36:02;26.55;;;19.85;;
23282;SDS011;11810;51.178;3.878;2022-08-16T06:38:28;20.27;;;17.25;;
23282;SDS011;11810;51.178;3.878;2022-08-16T06:40:55;26.48;;;18.35;;
23282;SDS011;11810;51.178;3.878;2022-08-16T06:43:21;23.35;;;18.00;;
23282;SDS011;11810;51.178;3.878;2022-08-16T06:45:47;21.33;;;17.20;;
23282;SDS011;11810;51.178;3.878;2022-08-16T06:48:13;22.50;;;17.98;;
23282;SDS011;11810;51.178;3.878;2022-08-16T06:50:40;25.02;;;19.25;;
23282;SDS011;11810;51.178;3.878;2022-08-16T06:53:06;21.98;;;18.73;;
23282;SDS011;11810;51.178;3.878;2022-08-16T06:55:32;23.52;;;18.98;;
23282;SDS011;11810;51.178;3.878;2022-08-16T06:57:59;26.35;;;19.23;;
23282;SDS011;11810;51.178;3.878;2022-08-16T07:00:26;27.10;;;21.05;;
23282;SDS011;11810;51.178;3.878;2022-08-16T07:02:52;25.38;;;19.38;;
23282;SDS011;11810;51.178;3.878;2022-08-16T07:05:18;28.50;;;18.50;;
23282;SDS011;11810;51.178;3.878;2022-08-16T07:07:45;22.00;;;16.08;;
23282;SDS011;11810;51.178;3.878;2022-08-16T07:10:14;23.52;;;16.17;;
23282;SDS011;11810;51.178;3.878;2022-08-16T07:12:41;23.30;;;16.17;;
23282;SDS011;11810;51.178;3.878;2022-08-16T07:15:08;17.88;;;14.63;;
23282;SDS011;11810;51.178;3.878;2022-08-16T07:17:34;20.58;;;14.73;;
23282;SDS011;11810;51.178;3.878;2022-08-16T07:20:01;23.92;;;14.27;;
23282;SDS011;11810;51.178;3.878;2022-08-16T07:22:29;21.60;;;13.98;;
23282;SDS011;11810;51.178;3.878;2022-08-16T07:24:55;18.02;;;14.65;;
23282;SDS011;11810;51.178;3.878;2022-08-16T07:27:21;15.23;;;13.13;;
23282;SDS011;11810;51.178;3.878;2022-08-16T07:29:47;16.73;;;13.60;;
23282;SDS011;11810;51.178;3.878;2022-08-16T07:32:13;20.75;;;14.35;;
23282;SDS011;11810;51.178;3.878;2022-08-16T07:34:39;24.42;;;14.13;;
23282;SDS011;11810;51.178;3.878;2022-08-16T07:37:07;26.42;;;14.23;;
23282;SDS011;11810;51.178;3.878;2022-08-16T07:39:34;16.98;;;12.95;;
23282;SDS011;11810;51.178;3.878;2022-08-16T07:42:01;18.13;;;12.40;;
23282;SDS011;11810;51.178;3.878;2022-08-16T07:44:27;15.75;;;10.95;;
23282;SDS011;11810;51.178;3.878;2022-08-16T07:46:54;21.13;;;14.23;;
23282;SDS011;11810;51.178;3.878;2022-08-16T07:49:20;18.60;;;12.82;;
23282;SDS011;11810;51.178;3.878;2022-08-16T07:51:46;17.60;;;11.18;;
23282;SDS011;11810;51.178;3.878;2022-08-16T07:54:13;20.02;;;11.63;;
23282;SDS011;11810;51.178;3.878;2022-08-16T07:56:39;14.52;;;11.15;;
23282;SDS011;11810;51.178;3.878;2022-08-16T07:59:05;18.90;;;12.75;;
23282;SDS011;11810;51.178;3.878;2022-08-16T08:01:31;21.05;;;10.65;;
23282;SDS011;11810;51.178;3.878;2022-08-16T08:03:59;19.67;;;11.93;;
23282;SDS011;11810;51.178;3.878;2022-08-16T08:06:27;21.02;;;11.60;;
23282;SDS011;11810;51.178;3.878;2022-08-16T08:08:54;15.27;;;10.60;;
23282;SDS011;11810;51.178;3.878;2022-08-16T08:11:21;13.82;;;10.52;;
23282;SDS011;11810;51.178;3.878;2022-08-16T08:13:48;15.13;;;10.23;;
23282;SDS011;11810;51.178;3.878;2022-08-16T08:16:15;10.63;;;9.15;;
23282;SDS011;11810;51.178;3.878;2022-08-16T08:18:41;12.32;;;9.65;;
23282;SDS011;11810;51.178;3.878;2022-08-16T08:21:09;17.10;;;10.75;;
23282;SDS011;11810;51.178;3.878;2022-08-16T08:23:35;17.25;;;9.93;;
23282;SDS011;11810;51.178;3.878;2022-08-16T08:26:01;15.23;;;9.63;;
23282;SDS011;11810;51.178;3.878;2022-08-16T08:28:28;15.52;;;9.25;;
23282;SDS011;11810;51.178;3.878;2022-08-16T08:30:56;15.77;;;9.85;;
23282;SDS011;11810;51.178;3.878;2022-08-16T08:33:23;14.77;;;9.50;;
23282;SDS011;11810;51.178;3.878;2022-08-16T08:35:49;14.52;;;10.98;;
23282;SDS011;11810;51.178;3.878;2022-08-16T08:38:15;18.88;;;8.55;;
23282;SDS011;11810;51.178;3.878;2022-08-16T08:40:41;15.57;;;8.68;;
23282;SDS011;11810;51.178;3.878;2022-08-16T08:43:09;16.30;;;10.98;;
23282;SDS011;11810;51.178;3.878;2022-08-16T08:45:38;13.65;;;10.23;;
23282;SDS011;11810;51.178;3.878;2022-08-16T08:48:05;17.52;;;8.63;;
23282;SDS011;11810;51.178;3.878;2022-08-16T08:50:31;13.20;;;8.85;;
23282;SDS011;11810;51.178;3.878;2022-08-16T08:52:57;14.63;;;8.85;;
23282;SDS011;11810;51.178;3.878;2022-08-16T08:55:25;11.88;;;9.65;;
23282;SDS011;11810;51.178;3.878;2022-08-16T08:57:52;16.63;;;9.43;;
23282;SDS011;11810;51.178;3.878;2022-08-16T09:00:19;16.67;;;9.65;;
23282;SDS011;11810;51.178;3.878;2022-08-16T09:02:47;18.75;;;9.68;;
23282;SDS011;11810;51.178;3.878;2022-08-16T09:05:14;14.27;;;8.73;;
23282;SDS011;11810;51.178;3.878;2022-08-16T09:07:42;10.95;;;8.20;;
23282;SDS011;11810;51.178;3.878;2022-08-16T09:10:09;17.77;;;9.38;;
23282;SDS011;11810;51.178;3.878;2022-08-16T09:12:35;16.10;;;8.50;;
23282;SDS011;11810;51.178;3.878;2022-08-16T09:15:03;12.95;;;9.52;;
23282;SDS011;11810;51.178;3.878;2022-08-16T09:17:31;14.63;;;10.00;;
23282;SDS011;11810;51.178;3.878;2022-08-16T09:19:57;10.23;;;8.73;;
23282;SDS011;11810;51.178;3.878;2022-08-16T09:22:23;14.80;;;9.90;;
23282;SDS011;11810;51.178;3.878;2022-08-16T09:24:51;19.45;;;9.98;;
23282;SDS011;11810;51.178;3.878;2022-08-16T09:27:17;13.57;;;9.93;;
23282;SDS011;11810;51.178;3.878;2022-08-16T09:29:44;18.25;;;9.32;;
23282;SDS011;11810;51.178;3.878;2022-08-16T09:32:10;15.30;;;10.02;;
23282;SDS011;11810;51.178;3.878;2022-08-16T09:34:36;12.13;;;9.45;;
23282;SDS011;11810;51.178;3.878;2022-08-16T09:37:02;12.27;;;9.45;;
23282;SDS011;11810;51.178;3.878;2022-08-16T09:39:28;15.50;;;8.98;;
23282;SDS011;11810;51.178;3.878;2022-08-16T09:41:54;17.20;;;8.95;;
23282;SDS011;11810;51.178;3.878;2022-08-16T09:44:24;12.98;;;8.73;;
23282;SDS011;11810;51.178;3.878;2022-08-16T09:46:51;17.00;;;9.00;;
23282;SDS011;11810;51.178;3.878;2022-08-16T09:49:18;14.13;;;7.88;;
23282;SDS011;11810;51.178;3.878;2022-08-16T09:51:45;10.43;;;8.25;;
23282;SDS011;11810;51.178;3.878;2022-08-16T09:54:12;9.25;;;7.72;;
23282;SDS011;11810;51.178;3.878;2022-08-16T09:56:39;13.52;;;7.90;;
23282;SDS011;11810;51.178;3.878;2022-08-16T09:59:06;12.23;;;6.25;;
23282;SDS011;11810;51.178;3.878;2022-08-16T10:01:37;13.02;;;6.68;;
23282;SDS011;11810;51.178;3.878;2022-08-16T10:04:05;10.23;;;5.50;;
23282;SDS011;11810;51.178;3.878;2022-08-16T10:06:32;9.85;;;5.65;;
23282;SDS011;11810;51.178;3.878;2022-08-16T10:08:58;8.00;;;5.45;;
23282;SDS011;11810;51.178;3.878;2022-08-16T10:11:24;9.57;;;5.95;;
23282;SDS011;11810;51.178;3.878;2022-08-16T10:16:34;10.30;;;5.32;;
23282;SDS011;11810;51.178;3.878;2022-08-16T10:19:00;12.35;;;4.63;;
23282;SDS011;11810;51.178;3.878;2022-08-16T10:21:26;8.93;;;4.80;;
23282;SDS011;11810;51.178;3.878;2022-08-16T10:23:52;7.07;;;4.82;;
23282;SDS011;11810;51.178;3.878;2022-08-16T10:26:19;12.00;;;5.35;;
23282;SDS011;11810;51.178;3.878;2022-08-16T10:28:48;12.55;;;4.53;;
23282;SDS011;11810;51.178;3.878;2022-08-16T10:31:15;11.07;;;4.95;;
23282;SDS011;11810;51.178;3.878;2022-08-16T10:33:41;8.30;;;4.00;;
23282;SDS011;11810;51.178;3.878;2022-08-16T10:36:08;13.25;;;4.80;;
23282;SDS011;11810;51.178;3.878;2022-08-16T10:38:37;8.57;;;4.85;;
23282;SDS011;11810;51.178;3.878;2022-08-16T10:41:06;12.43;;;5.13;;
23282;SDS011;11810;51.178;3.878;2022-08-16T10:43:33;10.15;;;5.20;;
23282;SDS011;11810;51.178;3.878;2022-08-16T10:46:00;8.90;;;4.80;;
23282;SDS011;11810;51.178;3.878;2022-08-16T10:48:27;11.00;;;5.07;;
23282;SDS011;11810;51.178;3.878;2022-08-16T10:50:54;11.23;;;4.97;;
23282;SDS011;11810;51.178;3.878;2022-08-16T10:53:25;10.73;;;4.43;;
23282;SDS011;11810;51.178;3.878;2022-08-16T10:55:52;10.02;;;5.38;;
23282;SDS011;11810;51.178;3.878;2022-08-16T10:58:18;9.77;;;5.13;;
23282;SDS011;11810;51.178;3.878;2022-08-16T11:00:44;7.75;;;4.85;;
23282;SDS011;11810;51.178;3.878;2022-08-16T11:03:10;14.02;;;5.18;;
23282;SDS011;11810;51.178;3.878;2022-08-16T11:05:38;10.82;;;5.15;;
23282;SDS011;11810;51.178;3.878;2022-08-16T11:08:08;11.98;;;5.28;;
23282;SDS011;11810;51.178;3.878;2022-08-16T11:10:39;7.78;;;4.93;;
23282;SDS011;11810;51.178;3.878;2022-08-16T11:13:08;9.05;;;5.22;;
23282;SDS011;11810;51.178;3.878;2022-08-16T11:15:40;10.52;;;4.88;;
23282;SDS011;11810;51.178;3.878;2022-08-16T11:18:09;8.15;;;4.65;;
23282;SDS011;11810;51.178;3.878;2022-08-16T11:20:36;9.18;;;4.45;;
23282;SDS011;11810;51.178;3.878;2022-08-16T11:23:02;9.23;;;4.60;;
23282;SDS011;11810;51.178;3.878;2022-08-16T11:25:29;8.93;;;4.57;;
23282;SDS011;11810;51.178;3.878;2022-08-16T11:27:56;10.48;;;4.40;;
23282;SDS011;11810;51.178;3.878;2022-08-16T11:30:23;10.90;;;4.93;;
23282;SDS011;11810;51.178;3.878;2022-08-16T11:32:51;6.05;;;4.10;;
23282;SDS011;11810;51.178;3.878;2022-08-16T11:35:19;8.18;;;4.07;;
23282;SDS011;11810;51.178;3.878;2022-08-16T11:37:54;6.97;;;4.60;;
23282;SDS011;11810;51.178;3.878;2022-08-16T11:40:24;9.15;;;4.45;;
23282;SDS011;11810;51.178;3.878;2022-08-16T11:42:53;5.30;;;4.05;;
23282;SDS011;11810;51.178;3.878;2022-08-16T11:45:19;7.60;;;4.03;;
23282;SDS011;11810;51.178;3.878;2022-08-16T11:47:45;6.65;;;3.78;;
23282;SDS011;11810;51.178;3.878;2022-08-16T11:50:12;5.93;;;3.35;;
23282;SDS011;11810;51.178;3.878;2022-08-16T11:52:38;4.60;;;3.28;;
23282;SDS011;11810;51.178;3.878;2022-08-16T11:55:05;6.68;;;3.10;;
23282;SDS011;11810;51.178;3.878;2022-08-16T11:57:32;7.10;;;3.10;;
23282;SDS011;11810;51.178;3.878;2022-08-16T11:59:59;6.40;;;3.47;;
23282;SDS011;11810;51.178;3.878;2022-08-16T12:02:25;10.75;;;3.33;;
23282;SDS011;11810;51.178;3.878;2022-08-16T12:04:51;7.60;;;3.60;;
23282;SDS011;11810;51.178;3.878;2022-08-16T12:07:18;7.95;;;3.53;;
23282;SDS011;11810;51.178;3.878;2022-08-16T12:09:44;7.50;;;3.22;;
23282;SDS011;11810;51.178;3.878;2022-08-16T12:12:10;5.88;;;3.53;;
23282;SDS011;11810;51.178;3.878;2022-08-16T12:14:36;8.02;;;3.70;;
23282;SDS011;11810;51.178;3.878;2022-08-16T12:17:03;4.47;;;3.30;;
23282;SDS011;11810;51.178;3.878;2022-08-16T12:19:31;8.50;;;3.50;;
23282;SDS011;11810;51.178;3.878;2022-08-16T12:21:57;6.82;;;3.22;;
23282;SDS011;11810;51.178;3.878;2022-08-16T12:24:23;8.38;;;3.60;;
23282;SDS011;11810;51.178;3.878;2022-08-16T12:26:50;7.07;;;4.15;;
23282;SDS011;11810;51.178;3.878;2022-08-16T12:29:17;9.52;;;3.38;;
23282;SDS011;11810;51.178;3.878;2022-08-16T12:31:43;5.28;;;3.40;;
23282;SDS011;11810;51.178;3.878;2022-08-16T12:34:10;8.57;;;3.10;;
23282;SDS011;11810;51.178;3.878;2022-08-16T12:36:35;9.32;;;2.95;;
23282;SDS011;11810;51.178;3.878;2022-08-16T12:39:04;5.68;;;3.10;;
23282;SDS011;11810;51.178;3.878;2022-08-16T12:41:31;7.75;;;2.85;;
23282;SDS011;11810;51.178;3.878;2022-08-16T12:43:59;7.65;;;3.03;;
23282;SDS011;11810;51.178;3.878;2022-08-16T12:46:27;5.32;;;3.38;;
23282;SDS011;11810;51.178;3.878;2022-08-16T12:48:53;7.78;;;3.38;;
23282;SDS011;11810;51.178;3.878;2022-08-16T12:51:24;4.45;;;3.13;;
23282;SDS011;11810;51.178;3.878;2022-08-16T12:53:54;3.95;;;3.03;;
23282;SDS011;11810;51.178;3.878;2022-08-16T12:56:24;7.55;;;3.25;;
23282;SDS011;11810;51.178;3.878;2022-08-16T12:58:53;11.93;;;3.20;;
23282;SDS011;11810;51.178;3.878;2022-08-16T13:01:21;7.50;;;3.65;;
23282;SDS011;11810;51.178;3.878;2022-08-16T13:03:54;7.75;;;3.03;;
23282;SDS011;11810;51.178;3.878;2022-08-16T13:06:23;4.13;;;3.22;;
23282;SDS011;11810;51.178;3.878;2022-08-16T13:08:50;7.70;;;2.88;;
23282;SDS011;11810;51.178;3.878;2022-08-16T13:11:20;6.60;;;3.00;;
23282;SDS011;11810;51.178;3.878;2022-08-16T13:13:49;8.90;;;3.42;;
23282;SDS011;11810;51.178;3.878;2022-08-16T13:16:15;4.47;;;3.25;;
23282;SDS011;11810;51.178;3.878;2022-08-16T13:18:41;6.38;;;3.45;;
23282;SDS011;11810;51.178;3.878;2022-08-16T13:21:07;7.55;;;3.60;;
23282;SDS011;11810;51.178;3.878;2022-08-16T13:23:34;8.32;;;3.50;;
23282;SDS011;11810;51.178;3.878;2022-08-16T13:26:02;7.45;;;3.35;;
23282;SDS011;11810;51.178;3.878;2022-08-16T13:28:29;5.45;;;3.35;;
23282;SDS011;11810;51.178;3.878;2022-08-16T13:30:55;11.73;;;3.40;;
23282;SDS011;11810;51.178;3.878;2022-08-16T13:33:24;4.07;;;3.35;;
23282;SDS011;11810;51.178;3.878;2022-08-16T13:35:54;5.53;;;3.42;;
23282;SDS011;11810;51.178;3.878;2022-08-16T13:38:22;4.72;;;3.13;;
23282;SDS011;11810;51.178;3.878;2022-08-16T13:40:48;6.13;;;3.42;;
23282;SDS011;11810;51.178;3.878;2022-08-16T13:43:15;7.63;;;3.90;;
23282;SDS011;11810;51.178;3.878;2022-08-16T13:45:42;3.92;;;3.30;;
23282;SDS011;11810;51.178;3.878;2022-08-16T13:48:08;6.35;;;3.30;;
23282;SDS011;11810;51.178;3.878;2022-08-16T13:50:34;9.95;;;3.53;;
23282;SDS011;11810;51.178;3.878;2022-08-16T13:53:00;7.00;;;3.80;;
23282;SDS011;11810;51.178;3.878;2022-08-16T13:55:27;6.25;;;4.07;;
23282;SDS011;11810;51.178;3.878;2022-08-16T13:57:54;8.13;;;3.67;;
23282;SDS011;11810;51.178;3.878;2022-08-16T14:00:20;4.78;;;3.50;;
23282;SDS011;11810;51.178;3.878;2022-08-16T14:02:47;11.35;;;3.40;;
23282;SDS011;11810;51.178;3.878;2022-08-16T14:05:13;5.72;;;3.58;;
23282;SDS011;11810;51.178;3.878;2022-08-16T14:07:39;5.68;;;3.40;;
23282;SDS011;11810;51.178;3.878;2022-08-16T14:10:06;6.85;;;3.38;;
23282;SDS011;11810;51.178;3.878;2022-08-16T14:12:34;9.90;;;3.60;;
23282;SDS011;11810;51.178;3.878;2022-08-16T14:15:03;10.25;;;3.55;;
23282;SDS011;11810;51.178;3.878;2022-08-16T14:17:30;9.52;;;3.55;;
23282;SDS011;11810;51.178;3.878;2022-08-16T14:19:56;10.88;;;4.50;;
23282;SDS011;11810;51.178;3.878;2022-08-16T14:22:30;11.05;;;3.80;;
23282;SDS011;11810;51.178;3.878;2022-08-16T14:24:58;12.55;;;4.07;;
23282;SDS011;11810;51.178;3.878;2022-08-16T14:27:26;6.13;;;3.83;;
23282;SDS011;11810;51.178;3.878;2022-08-16T14:29:53;7.32;;;3.72;;
23282;SDS011;11810;51.178;3.878;2022-08-16T14:32:22;6.30;;;3.10;;
23282;SDS011;11810;51.178;3.878;2022-08-16T14:34:50;4.57;;;3.65;;
23282;SDS011;11810;51.178;3.878;2022-08-16T14:37:17;12.35;;;3.33;;
23282;SDS011;11810;51.178;3.878;2022-08-16T14:39:43;8.95;;;3.75;;
23282;SDS011;11810;51.178;3.878;2022-08-16T14:42:11;9.48;;;3.40;;